Main page
Satellite images 15-day forecastsClimateCyclones Lightning AirportsFAQ Newsletter About
Weather : Europe Africa North America South America Asia Australia-Oceania Others
Languages Contact

Mexicali, Mexico

General Rodolfo Sánchez Taboada

latitude: 32-37-50N, longitude: 115-14-30W, elevation: 22 m


METAR: MMML 161750Z 00000KT 10SM SKC 29/M01 A2976 RMK SLP079 52022 991
short-TAF: out of date (46793 hours)
long-TAF: MMML 161708Z 1618/1718 23010KT P6SM SKC BECMG 1701/1702 00000KT FM171500 28010KT P6SM SKC

Time: 13:56 (18:56 UTC)

Current weather observation

The report was made 1 hour and 6 minutes ago, at 17:50 UTC  
Wind calm
Temperature 29°C
Humidity 14%
Pressure 1008 hPa
Visibility 16.1 km
Clear sky

Change units

Forecast

The report was made 1 hour and 42 minutes ago, at 17:14 UTC  
Forecast valid from 16 at 18 UTC to 17 at 18 UTC
Wind 10 kt from southwest
Visibility 10 km
Clear sky
Becoming
from 17 at 01 UTC to 17 at 02 UTC
Wind 00 kt from north
From 17 at 1500 UTC
Wind 10 kt from west
Visibility 10 km
Clear sky
The information on this site is subject to a disclaimer
Weather : Europe Africa North America South America Asia Australia-Oceania Others
Satellite images 15-day forecastsClimateCyclones Lightning AirportsFAQ Languages Contact Newsletter About